Weather reports worldwide

Advertisment
Elgoibar, Spain (8036): temperature & dewpoint: 08.11.2018 13:00:00 - 14.11.2018 13:00:00 (CET)Elgoibar, Spain (8036): wind speed & gusts: 08.11.2018 13:00:00 - 14.11.2018 13:00:00 (CET)Elgoibar, Spain (8036): wind direction: 08.11.2018 13:00:00 - 14.11.2018 13:00:00 (CET)Elgoibar, Spain (8036): reduced air pressure: 08.11.2018 13:00:00 - 14.11.2018 13:00:00 (CET)Elgoibar, Spain (8036): precipitation: 08.11.2018 13:00:00 - 14.11.2018 13:00:00 (CET)
Date & Time tt [°C] td [°C] ff [km/h] ff [kn] fx [km/h] fx [kn] dd ppp [hPa] rr [mm]
14.11.2018 13:00:00 - - - - - - - - -
14.11.2018 12:00:00 19,1 11,4 3 1 16 9 W 1020,9 0,0
14.11.2018 11:00:00 17,2 11,4 6 3 20 11 SW 1021,5 0,0
14.11.2018 10:00:00 13,7 10,5 9 5 23 13 SW 1022,3 0,0
14.11.2018 09:00:00 11,7 10,2 6 3 23 12 S 1022,5 0,0
14.11.2018 08:00:00 10,8 9,4 7 4 23 12 WSW 1022,2 0,0
14.11.2018 07:00:00 11,0 9,8 8 4 29 16 SW 1022,2 -
14.11.2018 06:00:00 9,8 9,2 10 5 28 15 SW 1022,6 0,0
14.11.2018 05:00:00 9,5 8,9 12 7 27 15 SW 1022,7 0,0
14.11.2018 04:00:00 9,8 9,2 11 6 28 15 SSW 1023,1 0,0
14.11.2018 03:00:00 9,6 9,0 14 8 29 15 SW 1023,4 0,0
14.11.2018 02:00:00 9,5 8,9 13 7 28 15 SW 1023,6 0,0
14.11.2018 01:00:00 9,9 9,3 13 7 26 14 WSW 1024,2 -
14.11.2018 00:00:00 9,9 9,3 7 4 19 10 SW 1024,8 0,0
13.11.2018 23:00:00 10,1 9,3 6 3 14 8 SW 1025,1 0,0
13.11.2018 22:00:00 10,3 9,2 6 3 11 6 SW 1025,8 0,0
13.11.2018 21:00:00 10,8 9,6 0 0 0 0 N 1025,9 0,0
13.11.2018 20:00:00 11,5 9,9 0 0 0 0 N 1025,9 0,0
13.11.2018 19:00:00 12,4 10,6 0 0 0 0 N 1025,8 -
13.11.2018 18:00:00 12,9 10,8 0 0 0 0 N 1025,8 0,0
13.11.2018 17:00:00 12,9 10,8 0 0 11 6 N 1026,2 0,0
13.11.2018 16:00:00 12,8 10,5 8 4 16 9 N 1026,1 0,0
13.11.2018 15:00:00 13,7 10,6 6 4 10 5 N 1025,8 0,0
13.11.2018 14:00:00 13,9 11,2 0 0 0 0 N 1026,1 0,0
13.11.2018 13:00:00 13,3 12,3 0 0 0 0 N 1026,7 -
13.11.2018 12:00:00 12,5 12,0 0 0 0 0 N 1027,5 0,0
13.11.2018 11:00:00 11,8 11,3 0 0 0 0 N 1028,2 0,0
13.11.2018 10:00:00 11,3 10,9 0 0 0 0 N 1028,2 0,0
13.11.2018 09:00:00 11,0 10,5 0 0 0 0 N 1027,6 0,0
13.11.2018 08:00:00 10,9 10,4 0 0 0 0 N 1026,9 0,0
13.11.2018 07:00:00 11,0 10,5 0 0 0 0 N 1026,4 -
13.11.2018 06:00:00 11,1 10,6 0 0 0 0 N 1025,9 0,0
13.11.2018 05:00:00 11,0 10,4 0 0 0 0 N 1025,4 0,0
13.11.2018 04:00:00 11,1 10,5 0 0 0 0 N 1025,1 0,0
13.11.2018 03:00:00 11,1 10,5 0 0 0 0 N 1025,1 0,1
13.11.2018 02:00:00 11,2 10,5 0 0 0 0 N 1024,7 0,8
13.11.2018 01:00:00 11,2 10,5 0 0 0 0 N 1024,3 -
13.11.2018 00:00:00 11,3 10,6 0 0 0 0 N 1023,5 0,2
12.11.2018 23:00:00 11,3 10,6 0 0 0 0 N 1023,0 2,8
12.11.2018 22:00:00 11,4 10,8 0 0 0 0 N 1022,3 0,2
12.11.2018 21:00:00 11,3 10,6 0 0 4 2 N 1021,4 1,8
12.11.2018 20:00:00 11,5 10,9 0 0 0 0 N 1020,2 0,8
12.11.2018 19:00:00 11,4 10,8 0 0 0 0 N 1019,4 -
12.11.2018 18:00:00 11,3 10,6 0 0 9 5 N 1018,6 0,0
12.11.2018 17:00:00 11,4 10,8 2 1 10 5 N 1017,9 0,0
12.11.2018 16:00:00 11,3 10,6 6 3 13 7 N 1017,1 0,1
12.11.2018 15:00:00 11,2 10,5 6 3 14 7 N 1016,9 0,0
12.11.2018 14:00:00 11,2 10,5 8 4 14 8 NNW 1017,2 0,0
12.11.2018 13:00:00 11,3 10,6 7 4 13 7 NNE 1017,2 -
12.11.2018 12:00:00 11,5 10,9 0 0 10 5 N 1017,4 0,0
12.11.2018 11:00:00 10,9 10,3 7 4 14 7 NNW 1017,2 0,3
12.11.2018 10:00:00 11,5 10,9 0 0 0 0 N 1016,4 1,5
12.11.2018 09:00:00 11,4 10,8 0 0 0 0 N 1015,6 5,5
12.11.2018 08:00:00 11,5 10,9 0 0 0 0 N 1014,4 6,6
12.11.2018 07:00:00 11,5 10,9 0 0 6 4 N 1013,5 -
12.11.2018 06:00:00 11,6 11,0 0 0 7 4 N 1012,4 0,9
12.11.2018 05:00:00 11,8 11,0 0 0 0 0 N 1011,2 0,8
12.11.2018 04:00:00 12,1 11,3 0 0 6 3 N 1010,7 0,8
12.11.2018 03:00:00 12,1 11,3 4 2 11 6 NNW 1010,3 0,0
12.11.2018 02:00:00 12,1 11,1 0 0 8 4 N 1009,2 0,0
12.11.2018 01:00:00 12,2 11,2 3 1 8 4 NE 1009,0 -
12.11.2018 00:00:00 12,3 11,3 3 2 9 5 NNE 1009,0 0,0
11.11.2018 23:00:00 12,2 11,1 0 0 13 7 N 1009,2 0,0
11.11.2018 22:00:00 12,2 11,1 3 1 8 4 N 1008,8 0,0
11.11.2018 21:00:00 12,5 11,4 0 0 7 4 N 1008,7 0,0
11.11.2018 20:00:00 12,6 11,3 0 0 6 4 N 1008,7 0,1
11.11.2018 19:00:00 13,0 11,4 3 2 20 11 ENE 1008,8 -
11.11.2018 18:00:00 13,9 11,2 5 3 18 10 NNE 1008,7 0,0
11.11.2018 17:00:00 17,3 10,2 5 3 10 5 SW 1008,6 0,0
11.11.2018 16:00:00 18,5 9,3 0 0 26 14 SSE 1008,3 0,0
11.11.2018 15:00:00 19,3 8,9 4 2 19 11 S 1008,1 0,0
11.11.2018 14:00:00 19,3 8,9 3 2 46 25 NNW 1007,5 0,0
11.11.2018 13:00:00 19,1 8,7 6 3 49 27 SSW 1007,9 -
11.11.2018 12:00:00 18,6 8,0 9 5 35 19 W 1007,9 0,0
11.11.2018 11:00:00 18,5 8,1 4 2 29 16 WSW 1008,6 0,0
11.11.2018 10:00:00 17,9 7,6 6 3 43 23 SSW 1009,3 0,0
11.11.2018 09:00:00 17,3 7,0 10 5 52 28 SW 1008,5 0,0
11.11.2018 08:00:00 17,0 6,8 15 8 54 29 SSW 1008,0 0,0
11.11.2018 07:00:00 17,2 7,0 16 9 56 30 SSW 1007,2 -
11.11.2018 06:00:00 16,6 6,4 11 6 47 25 SW 1006,9 0,1
11.11.2018 05:00:00 16,2 6,5 8 5 40 21 SW 1007,6 0,0
11.11.2018 04:00:00 16,4 7,0 12 6 41 22 S 1008,6 0,0
11.11.2018 03:00:00 15,1 7,1 3 1 21 12 WNW 1009,1 0,0
11.11.2018 02:00:00 16,1 8,1 4 2 39 21 ESE 1009,0 0,0
11.11.2018 01:00:00 15,9 7,7 6 3 31 17 S 1009,1 -
11.11.2018 00:00:00 14,8 9,2 9 5 24 13 SE 1008,8 0,0
10.11.2018 23:00:00 10,8 9,9 4 2 11 6 SW 1009,1 0,0
10.11.2018 22:00:00 11,2 10,0 1 1 10 5 W 1008,9 0,0
10.11.2018 21:00:00 11,8 10,0 0 0 5 3 N 1008,7 0,1
10.11.2018 20:00:00 13,0 10,4 0 0 12 6 N 1008,6 0,7
10.11.2018 19:00:00 14,5 10,2 8 4 34 18 NNE 1007,5 -
10.11.2018 18:00:00 18,2 9,0 4 2 36 20 WSW 1006,0 0,0
10.11.2018 17:00:00 18,5 9,3 8 4 36 19 S 1005,5 0,0
10.11.2018 16:00:00 19,1 9,3 7 4 34 18 S 1004,9 0,0
10.11.2018 15:00:00 18,8 9,3 6 4 32 18 SW 1004,6 0,0
10.11.2018 14:00:00 20,1 9,9 3 2 28 15 SSE 1004,5 0,0
10.11.2018 13:00:00 19,3 10,5 9 5 29 16 SSE 1005,4 -
10.11.2018 12:00:00 18,6 10,2 6 3 34 19 SSW 1006,6 0,0
10.11.2018 11:00:00 17,9 10,0 10 5 42 23 SW 1006,4 0,0
10.11.2018 10:00:00 17,1 9,3 11 6 45 24 SSW 1005,6 0,0
10.11.2018 09:00:00 16,8 9,0 2 1 48 26 S 1006,0 0,0
10.11.2018 08:00:00 16,9 8,4 11 6 49 27 SW 1005,5 0,0
10.11.2018 07:00:00 16,9 8,5 8 4 47 26 SW 1005,4 -
10.11.2018 06:00:00 16,5 8,7 9 5 50 27 SSE 1005,8 0,0
10.11.2018 05:00:00 15,9 8,7 10 6 49 26 S 1006,3 0,0
10.11.2018 04:00:00 15,6 8,5 20 11 62 34 S 1007,3 0,0
10.11.2018 03:00:00 15,3 8,5 17 9 75 40 S 1007,6 0,0
10.11.2018 02:00:00 14,7 8,4 19 10 61 33 S 1007,9 0,0
10.11.2018 01:00:00 14,2 8,1 16 9 73 39 S 1008,7 -
10.11.2018 00:00:00 14,0 7,3 19 10 56 31 S 1009,4 0,0
09.11.2018 23:00:00 13,9 7,0 27 15 71 39 SSE 1010,0 0,0
09.11.2018 22:00:00 13,1 6,4 16 9 59 32 SSE 1010,7 0,0
09.11.2018 21:00:00 13,8 5,5 23 12 63 34 SSE 1011,5 0,0
09.11.2018 20:00:00 13,6 5,0 26 14 60 32 SSE 1011,8 0,0
09.11.2018 19:00:00 13,6 4,5 26 14 53 29 S 1012,1 -
09.11.2018 18:00:00 13,7 3,8 15 8 41 22 S 1011,9 0,0
09.11.2018 17:00:00 13,9 3,9 17 9 49 26 S 1011,8 0,0
09.11.2018 16:00:00 13,4 3,4 14 8 45 24 SSE 1012,3 0,0
09.11.2018 15:00:00 14,2 4,5 10 5 39 21 SW 1012,8 0,1
09.11.2018 14:00:00 14,9 5,6 9 5 33 18 SSW 1013,9 0,0
09.11.2018 13:00:00 14,2 5,8 11 6 30 16 S 1014,9 -
09.11.2018 12:00:00 13,8 8,3 7 4 19 11 S 1016,3 0,0
09.11.2018 11:00:00 11,6 9,0 5 3 11 6 SW 1017,0 0,0
09.11.2018 10:00:00 10,5 9,0 5 3 11 6 SW 1017,3 0,0
09.11.2018 09:00:00 9,7 8,3 4 2 12 7 WSW 1017,0 0,0
09.11.2018 08:00:00 9,5 8,1 6 3 14 7 SW 1016,7 0,0
09.11.2018 07:00:00 9,8 8,4 4 2 14 7 SW 1016,2 -
09.11.2018 06:00:00 9,9 8,5 5 3 16 9 SW 1015,9 0,0
09.11.2018 05:00:00 10,2 8,9 3 2 21 12 W 1015,5 0,2
09.11.2018 04:00:00 9,6 8,4 2 1 8 5 SSE 1014,8 0,6
09.11.2018 03:00:00 9,8 8,1 1 1 15 8 ENE 1014,0 0,7
09.11.2018 02:00:00 10,3 7,4 3 2 9 5 NNW 1013,2 0,0
09.11.2018 01:00:00 10,6 7,1 4 2 26 14 WNW 1012,3 -
09.11.2018 00:00:00 11,4 7,1 10 6 27 15 S 1011,9 0,1
08.11.2018 23:00:00 11,8 6,8 9 5 37 20 S 1011,9 0,4
08.11.2018 22:00:00 13,1 7,1 6 4 33 18 SW 1011,4 0,3
08.11.2018 21:00:00 14,1 5,8 6 3 23 13 NNW 1009,7 0,0
08.11.2018 20:00:00 13,8 6,1 4 2 18 10 WSW 1009,7 0,0
08.11.2018 19:00:00 13,7 5,6 1 1 30 16 SW 1009,8 -
08.11.2018 18:00:00 14,8 5,6 8 4 31 17 E 1009,7 0,0
08.11.2018 17:00:00 15,6 5,8 2 1 16 9 WNW 1009,2 0,0
08.11.2018 16:00:00 16,5 6,4 1 1 21 12 WSW 1009,8 0,0
08.11.2018 15:00:00 16,0 5,9 3 1 24 13 ESE 1010,2 0,0
08.11.2018 14:00:00 16,6 5,8 2 1 24 13 N 1010,8 0,0
08.11.2018 13:00:00 15,8 5,6 5 3 48 26 ENE 1011,8 -

tt = temperature
td = dewpoint
ff = wind speed
fx = gusts
dd = wind direction
ppp = reduced air pressure
rr = precipitation

Next stations